createdAt,value
2023-03-26T00:01:24.571Z,2.22
2023-03-26T00:04:13.909Z,5.18
2023-03-26T00:07:01.837Z,2.88
2023-03-26T00:09:50.010Z,2.20
2023-03-26T00:12:38.007Z,1.92
2023-03-26T00:15:25.787Z,2.88
2023-03-26T00:18:13.548Z,2.55
2023-03-26T00:21:05.417Z,3.45
2023-03-26T00:23:53.567Z,1.40
2023-03-26T00:26:41.688Z,2.22
2023-03-26T00:29:33.174Z,4.03
2023-03-26T00:32:21.181Z,2.22
2023-03-26T00:35:09.761Z,5.25
2023-03-26T00:37:59.827Z,2.72
2023-03-26T00:40:48.011Z,4.13
2023-03-26T00:43:37.317Z,3.10
2023-03-26T00:46:25.750Z,2.22
2023-03-26T00:49:15.052Z,2.78
2023-03-26T00:52:03.621Z,3.95
2023-03-26T00:54:54.277Z,2.22
2023-03-26T00:57:42.312Z,4.05
2023-03-26T01:00:34.826Z,3.95
2023-03-26T01:03:27.950Z,7.40
2023-03-26T01:06:21.964Z,5.47
2023-03-26T01:09:15.905Z,6.53
2023-03-26T01:12:10.277Z,3.95
2023-03-26T01:15:01.730Z,5.25
2023-03-26T01:17:52.030Z,3.58
2023-03-26T01:20:46.606Z,4.18
2023-03-26T01:23:44.615Z,3.33
2023-03-26T01:26:54.055Z,4.85
2023-03-26T01:29:46.945Z,6.05
2023-03-26T01:32:47.836Z,7.65
2023-03-26T01:35:45.874Z,4.97
2023-03-26T01:38:46.432Z,4.82
2023-03-26T01:41:40.975Z,5.93
2023-03-26T01:44:35.710Z,5.13
2023-03-26T01:47:24.209Z,7.78
2023-03-26T01:50:12.250Z,5.55
2023-03-26T01:53:00.276Z,5.43
2023-03-26T01:55:59.187Z,3.88
2023-03-26T01:59:01.797Z,4.05
2023-03-26T02:02:01.947Z,6.15
2023-03-26T02:04:57.793Z,4.47
2023-03-26T02:07:50.894Z,11.05
2023-03-26T02:10:44.241Z,8.02
2023-03-26T02:13:35.315Z,7.82
2023-03-26T02:16:23.276Z,6.63
2023-03-26T02:19:15.862Z,6.35
2023-03-26T02:22:04.514Z,6.20
2023-03-26T02:24:52.461Z,8.40
2023-03-26T02:27:40.804Z,4.53
2023-03-26T02:30:29.606Z,3.53
2023-03-26T02:33:17.558Z,4.97
2023-03-26T02:36:08.763Z,4.28
2023-03-26T02:39:00.188Z,4.75
2023-03-26T02:41:48.022Z,4.47
2023-03-26T02:44:35.903Z,4.22
2023-03-26T02:47:23.752Z,4.07
2023-03-26T02:50:12.147Z,5.35
2023-03-26T02:53:01.749Z,4.47
2023-03-26T02:55:49.509Z,4.07
2023-03-26T02:58:37.440Z,5.22
2023-03-26T03:01:25.524Z,4.88
2023-03-26T03:04:13.965Z,5.05
2023-03-26T03:07:01.661Z,2.92
2023-03-26T03:09:51.035Z,5.50
2023-03-26T03:12:39.168Z,5.10
2023-03-26T03:15:27.349Z,7.13
2023-03-26T03:18:14.932Z,5.13
2023-03-26T03:21:02.957Z,6.17
2023-03-26T03:23:50.860Z,3.42
2023-03-26T03:26:42.323Z,6.63
2023-03-26T03:29:31.283Z,7.47
2023-03-26T03:32:18.879Z,3.50
2023-03-26T03:35:07.639Z,1.80
2023-03-26T03:37:55.443Z,2.33
2023-03-26T03:40:45.816Z,5.07
2023-03-26T03:43:34.952Z,2.83
2023-03-26T03:46:23.034Z,5.47
2023-03-26T03:49:10.738Z,4.47
2023-03-26T03:51:58.936Z,8.05
2023-03-26T03:54:47.080Z,7.20
2023-03-26T03:57:34.973Z,4.63
2023-03-26T04:00:24.387Z,6.10
2023-03-26T04:03:14.386Z,5.13
2023-03-26T04:06:02.591Z,5.10
2023-03-26T04:08:50.736Z,4.82
2023-03-26T04:11:38.951Z,2.67
2023-03-26T04:14:26.654Z,6.53
2023-03-26T04:17:16.117Z,8.10
2023-03-26T04:20:07.033Z,5.25
2023-03-26T04:22:55.076Z,6.22
2023-03-26T04:25:43.805Z,8.60
2023-03-26T04:28:35.553Z,7.00
2023-03-26T04:31:29.081Z,6.10
2023-03-26T04:34:25.162Z,6.82
2023-03-26T04:37:21.092Z,5.72
2023-03-26T04:40:13.357Z,3.42
2023-03-26T04:43:02.427Z,5.28
2023-03-26T04:45:50.431Z,3.85
2023-03-26T04:48:39.014Z,3.28
2023-03-26T04:51:38.152Z,4.53
2023-03-26T04:54:26.383Z,4.93
2023-03-26T04:57:21.186Z,5.45
2023-03-26T05:00:14.847Z,6.53
2023-03-26T05:03:03.042Z,6.68
2023-03-26T05:05:51.551Z,6.50
2023-03-26T05:08:41.717Z,6.13
2023-03-26T05:11:29.770Z,5.22
2023-03-26T05:14:17.471Z,6.53
2023-03-26T05:17:10.745Z,4.45
2023-03-26T05:19:58.927Z,7.95
2023-03-26T05:22:46.985Z,6.88
2023-03-26T05:25:36.360Z,4.40
2023-03-26T05:28:26.443Z,4.43
2023-03-26T05:31:15.510Z,5.32
2023-03-26T05:34:03.972Z,4.95
2023-03-26T05:36:52.005Z,4.43
2023-03-26T05:39:41.330Z,4.65
2023-03-26T05:42:30.703Z,3.42
2023-03-26T05:45:18.399Z,5.45
2023-03-26T05:48:06.870Z,3.60
2023-03-26T05:50:57.631Z,7.32
2023-03-26T05:53:45.748Z,3.58
2023-03-26T05:56:33.885Z,6.70
2023-03-26T05:59:23.165Z,7.68
2023-03-26T06:02:11.717Z,4.53
2023-03-26T06:04:59.733Z,8.10
2023-03-26T06:07:48.056Z,4.68
2023-03-26T06:10:38.417Z,5.50
2023-03-26T06:13:26.231Z,4.13
2023-03-26T06:16:26.315Z,6.75
2023-03-26T06:19:15.825Z,7.80
2023-03-26T06:22:03.819Z,2.55
2023-03-26T06:24:52.882Z,6.03
2023-03-26T06:27:40.894Z,5.38
2023-03-26T06:30:29.055Z,4.38
2023-03-26T06:33:18.709Z,7.25
2023-03-26T06:36:07.486Z,4.80
2023-03-26T06:38:55.841Z,6.38
2023-03-26T06:41:43.797Z,5.18
2023-03-26T06:44:31.830Z,4.75
2023-03-26T06:47:19.902Z,4.03
2023-03-26T06:50:11.832Z,3.15
2023-03-26T06:53:00.147Z,7.00
2023-03-26T06:55:48.002Z,3.53
2023-03-26T06:58:35.746Z,6.60
2023-03-26T07:01:23.627Z,6.85
2023-03-26T07:04:12.227Z,4.03
2023-03-26T07:07:01.455Z,6.18
2023-03-26T07:09:49.516Z,4.10
2023-03-26T07:12:37.192Z,6.88
2023-03-26T07:15:25.323Z,3.90
2023-03-26T07:18:13.372Z,7.68
2023-03-26T07:21:02.120Z,5.88
2023-03-26T07:23:53.272Z,5.35
2023-03-26T07:26:55.572Z,4.63
2023-03-26T07:29:49.866Z,4.45
2023-03-26T07:32:48.593Z,4.68
2023-03-26T07:35:42.713Z,2.65
2023-03-26T07:38:44.507Z,4.63
2023-03-26T07:41:43.246Z,4.97
2023-03-26T07:44:47.302Z,7.70
2023-03-26T07:47:36.700Z,8.15
2023-03-26T07:50:26.368Z,5.75
2023-03-26T07:53:15.210Z,5.20
2023-03-26T07:56:08.103Z,7.40
2023-03-26T07:59:05.781Z,6.55
2023-03-26T08:02:17.505Z,7.65
2023-03-26T08:05:19.736Z,5.72
2023-03-26T08:08:19.988Z,5.82
2023-03-26T08:11:15.814Z,4.80
2023-03-26T08:14:21.680Z,5.20
2023-03-26T08:17:14.299Z,5.38
2023-03-26T08:20:12.403Z,3.60
2023-03-26T08:23:09.300Z,5.90
2023-03-26T08:26:04.628Z,6.07
2023-03-26T08:29:03.910Z,7.78
2023-03-26T08:31:54.153Z,6.18
2023-03-26T08:34:44.285Z,4.25
2023-03-26T08:37:32.023Z,3.85
2023-03-26T08:40:36.897Z,5.18
2023-03-26T08:43:48.597Z,7.28
2023-03-26T08:47:02.590Z,7.85
2023-03-26T08:50:40.187Z,5.30
2023-03-26T08:54:10.129Z,11.05
2023-03-26T08:57:16.294Z,7.75
2023-03-26T09:00:38.504Z,6.90
2023-03-26T09:04:02.189Z,8.30
2023-03-26T09:07:09.809Z,5.65
2023-03-26T09:10:46.958Z,4.45
2023-03-26T09:14:14.756Z,5.05
2023-03-26T09:17:25.407Z,4.85
2023-03-26T09:20:55.915Z,9.77
2023-03-26T09:24:37.274Z,8.25
2023-03-26T09:27:39.164Z,7.03
2023-03-26T09:31:07.111Z,4.10
2023-03-26T09:34:08.233Z,11.10
2023-03-26T09:37:06.430Z,7.88
2023-03-26T09:40:10.135Z,6.50
2023-03-26T09:43:11.924Z,6.78
2023-03-26T09:46:09.522Z,5.65
2023-03-26T09:49:27.933Z,9.35
2023-03-26T09:52:42.089Z,4.75
2023-03-26T09:55:51.045Z,7.25
2023-03-26T09:59:09.494Z,5.63
2023-03-26T10:02:06.565Z,7.85
2023-03-26T10:05:20.622Z,4.75
2023-03-26T10:08:39.810Z,5.78
2023-03-26T10:11:40.482Z,6.72
2023-03-26T10:14:36.303Z,6.95
2023-03-26T10:17:37.803Z,6.53
2023-03-26T10:20:37.603Z,6.45
2023-03-26T10:23:49.914Z,5.88
2023-03-26T10:27:08.985Z,4.47
2023-03-26T10:30:26.341Z,4.85
2023-03-26T10:33:25.063Z,4.07
2023-03-26T10:36:38.191Z,9.13
2023-03-26T10:39:49.437Z,7.72
2023-03-26T10:43:14.133Z,5.38
2023-03-26T10:46:25.398Z,7.28
2023-03-26T10:49:42.244Z,6.88
2023-03-26T10:52:37.682Z,5.43
2023-03-26T10:55:34.704Z,3.28
2023-03-26T10:58:26.944Z,7.32
2023-03-26T11:01:24.595Z,6.38
2023-03-26T11:04:32.555Z,6.03
2023-03-26T11:07:27.905Z,3.15
2023-03-26T11:10:25.605Z,10.27
2023-03-26T11:13:24.076Z,9.18
2023-03-26T11:16:19.942Z,4.28
2023-03-26T11:19:17.698Z,7.10
2023-03-26T11:22:18.434Z,4.13
2023-03-26T11:25:27.343Z,6.90
2023-03-26T11:29:03.634Z,6.97
2023-03-26T11:32:01.480Z,5.93
2023-03-26T11:35:00.874Z,4.90
2023-03-26T11:37:53.381Z,5.82
2023-03-26T11:40:46.698Z,3.08
2023-03-26T11:46:28.521Z,6.90
2023-03-26T11:49:20.774Z,5.20
2023-03-26T11:52:11.041Z,3.38
2023-03-26T11:54:59.349Z,3.17
2023-03-26T11:57:53.684Z,6.95
2023-03-26T12:00:45.112Z,7.40
2023-03-26T12:03:33.852Z,4.53
2023-03-26T12:06:28.813Z,4.18
2023-03-26T12:09:20.955Z,5.43
2023-03-26T12:12:12.707Z,5.15
2023-03-26T12:15:01.844Z,5.75
2023-03-26T12:17:55.945Z,5.30
2023-03-26T12:20:45.271Z,2.75
2023-03-26T12:23:39.518Z,8.30
2023-03-26T12:26:35.976Z,8.73
2023-03-26T12:29:23.880Z,3.10
2023-03-26T12:32:16.478Z,6.95
2023-03-26T12:35:09.032Z,5.63
2023-03-26T12:38:14.369Z,10.07
2023-03-26T12:41:07.969Z,6.13
2023-03-26T12:44:53.413Z,3.30
2023-03-26T12:47:57.090Z,4.55
2023-03-26T12:50:34.437Z,6.47
2023-03-26T12:53:38.738Z,3.22
2023-03-26T12:56:36.772Z,6.78
2023-03-26T12:59:40.579Z,3.58
2023-03-26T13:02:58.870Z,2.90
2023-03-26T13:06:02.157Z,2.65
2023-03-26T13:09:18.140Z,2.22
2023-03-26T13:12:17.270Z,3.40
2023-03-26T13:15:17.700Z,7.88
2023-03-26T13:18:20.117Z,8.50
2023-03-26T13:21:18.251Z,6.55
2023-03-26T13:24:16.406Z,8.05
2023-03-26T13:27:19.723Z,2.90
2023-03-26T13:30:21.858Z,3.53
2023-03-26T13:33:27.640Z,2.80
2023-03-26T13:36:24.232Z,4.25
2023-03-26T13:39:23.480Z,4.70
2023-03-26T13:42:40.533Z,4.15
2023-03-26T13:45:44.167Z,4.00
2023-03-26T13:48:36.696Z,2.65
2023-03-26T13:51:31.903Z,4.10
2023-03-26T13:54:26.986Z,1.92
2023-03-26T13:57:21.476Z,1.80
2023-03-26T14:00:17.256Z,3.17
2023-03-26T14:03:17.502Z,2.58
2023-03-26T14:06:11.778Z,2.45
2023-03-26T14:09:06.821Z,4.05
2023-03-26T14:12:38.277Z,6.45
2023-03-26T14:15:31.352Z,3.88
2023-03-26T14:18:32.297Z,3.38
2023-03-26T14:21:41.320Z,3.13
2023-03-26T14:24:59.074Z,3.75
2023-03-26T14:28:02.107Z,3.70
2023-03-26T14:31:19.475Z,3.88
2023-03-26T14:34:38.462Z,3.55
2023-03-26T14:37:48.458Z,3.08
2023-03-26T14:40:58.101Z,4.07
2023-03-26T14:44:23.967Z,5.60
2023-03-26T14:47:17.029Z,3.72
2023-03-26T14:53:23.894Z,1.70
2023-03-26T14:56:43.581Z,1.55
2023-03-26T15:00:22.656Z,1.38
2023-03-26T15:04:04.336Z,1.63
2023-03-26T15:07:33.438Z,2.97
2023-03-26T15:10:50.962Z,2.65
2023-03-26T15:14:02.770Z,1.90
2023-03-26T15:17:39.574Z,2.10
2023-03-26T15:20:59.606Z,3.45
2023-03-26T15:24:32.934Z,2.40
2023-03-26T15:27:52.011Z,1.40
2023-03-26T15:31:31.696Z,2.00
2023-03-26T15:35:04.308Z,2.40
2023-03-26T15:38:20.777Z,1.45
2023-03-26T15:41:18.491Z,1.90
2023-03-26T15:44:25.581Z,2.58
2023-03-26T15:47:42.952Z,1.75
2023-03-26T15:50:47.484Z,1.70
2023-03-26T15:53:43.563Z,3.63
2023-03-26T15:56:53.031Z,4.00
2023-03-26T15:59:53.387Z,4.47
2023-03-26T16:02:53.650Z,6.70
2023-03-26T16:05:54.182Z,6.20
2023-03-26T16:08:54.098Z,6.07
2023-03-26T16:11:49.870Z,3.08
2023-03-26T16:14:44.551Z,2.92
2023-03-26T16:18:22.396Z,2.20
2023-03-26T16:21:41.221Z,2.70
2023-03-26T16:24:32.470Z,3.65
2023-03-26T16:27:32.397Z,4.88
2023-03-26T16:30:31.694Z,3.97
2023-03-26T16:33:23.361Z,4.63
2023-03-26T16:36:34.359Z,2.92
2023-03-26T16:39:38.287Z,2.38
2023-03-26T16:42:37.142Z,3.83
2023-03-26T16:45:30.600Z,2.22
2023-03-26T16:48:30.151Z,3.60
2023-03-26T16:51:27.294Z,1.60
2023-03-26T16:54:24.835Z,1.98
2023-03-26T16:57:27.053Z,2.28
2023-03-26T17:00:48.044Z,2.08
2023-03-26T17:03:44.943Z,1.63
2023-03-26T17:07:01.673Z,1.88
2023-03-26T17:10:00.582Z,4.30
2023-03-26T17:12:56.404Z,4.05
2023-03-26T17:15:54.149Z,2.88
2023-03-26T17:18:53.470Z,6.63
2023-03-26T17:21:52.674Z,1.80
2023-03-26T17:24:46.633Z,8.55
2023-03-26T17:27:41.292Z,3.60
2023-03-26T17:30:52.188Z,3.28
2023-03-26T17:33:41.035Z,1.80
2023-03-26T17:36:42.781Z,2.60
2023-03-26T17:40:12.619Z,2.08
2023-03-26T17:43:06.354Z,2.75
2023-03-26T17:46:03.391Z,2.13
2023-03-26T17:49:00.306Z,4.13
2023-03-26T17:51:58.397Z,4.93
2023-03-26T17:54:48.697Z,2.90
2023-03-26T17:57:41.990Z,1.90
2023-03-26T18:03:24.820Z,2.33
2023-03-26T18:06:17.771Z,3.67
2023-03-26T18:12:42.093Z,4.30
2023-03-26T18:15:46.739Z,6.00
2023-03-26T18:18:39.786Z,3.42
2023-03-26T18:21:33.664Z,2.17
2023-03-26T18:24:26.613Z,3.35
2023-03-26T18:30:14.961Z,2.10
2023-03-26T18:33:05.146Z,1.27
2023-03-26T18:35:56.321Z,2.90
2023-03-26T18:38:44.285Z,2.13
2023-03-26T18:41:39.328Z,2.80
2023-03-26T18:44:28.453Z,3.45
2023-03-26T18:47:16.403Z,3.53
2023-03-26T18:50:04.594Z,2.72
2023-03-26T18:52:52.664Z,2.20
2023-03-26T18:55:41.184Z,2.10
2023-03-26T18:58:34.369Z,1.75
2023-03-26T19:01:26.157Z,1.65
2023-03-26T19:04:14.731Z,1.45
2023-03-26T19:07:04.191Z,1.70
2023-03-26T19:09:56.200Z,2.40
2023-03-26T19:12:44.108Z,3.63
2023-03-26T19:15:35.386Z,3.13
2023-03-26T19:18:26.385Z,2.25
2023-03-26T19:21:17.968Z,1.63
2023-03-26T19:24:06.807Z,1.30
2023-03-26T19:26:54.738Z,2.47
2023-03-26T19:29:44.809Z,2.75
2023-03-26T19:32:34.622Z,2.65
2023-03-26T19:35:24.642Z,2.78
2023-03-26T19:38:23.472Z,2.60
2023-03-26T19:41:22.393Z,2.05
2023-03-26T19:44:21.571Z,1.92
2023-03-26T19:47:16.883Z,2.08
2023-03-26T19:50:25.539Z,2.40
2023-03-26T19:53:18.819Z,2.03
2023-03-26T19:56:13.515Z,1.95
2023-03-26T19:59:02.199Z,1.40
2023-03-26T20:01:49.860Z,1.60
2023-03-26T20:04:37.875Z,2.40
2023-03-26T20:07:35.961Z,1.83
2023-03-26T20:10:24.832Z,1.70
2023-03-26T20:13:16.815Z,1.50
2023-03-26T20:16:10.640Z,1.95
2023-03-26T20:19:02.272Z,2.38
2023-03-26T20:21:50.054Z,2.10
2023-03-26T20:24:39.393Z,2.22
2023-03-26T20:27:27.236Z,2.50
2023-03-26T20:30:19.039Z,2.22
2023-03-26T20:33:13.721Z,2.10
2023-03-26T20:36:01.844Z,2.00
2023-03-26T20:38:49.910Z,2.58
2023-03-26T20:41:42.816Z,1.60
2023-03-26T20:44:31.089Z,1.30
2023-03-26T20:47:19.079Z,2.05
2023-03-26T20:50:08.425Z,2.58
2023-03-26T20:52:59.785Z,1.80
2023-03-26T20:55:49.275Z,2.08
2023-03-26T20:58:40.729Z,3.42
2023-03-26T21:01:29.079Z,2.33
2023-03-26T21:04:17.450Z,1.60
2023-03-26T21:07:17.572Z,1.63
2023-03-26T21:10:07.231Z,2.38
2023-03-26T21:13:00.191Z,1.77
2023-03-26T21:15:49.866Z,4.30
2023-03-26T21:18:38.346Z,4.95
2023-03-26T21:21:44.155Z,1.83
2023-03-26T21:24:43.456Z,1.65
2023-03-26T21:27:41.165Z,2.05
2023-03-26T21:30:29.785Z,1.85
2023-03-26T21:33:19.886Z,1.70
2023-03-26T21:36:08.671Z,1.85
2023-03-26T21:38:57.178Z,2.08
2023-03-26T21:41:48.990Z,2.63
2023-03-26T21:44:53.627Z,3.55
2023-03-26T21:47:42.551Z,2.38
2023-03-26T21:50:32.843Z,2.35
2023-03-26T21:53:22.391Z,1.88
2023-03-26T21:56:20.457Z,2.80
2023-03-26T21:59:19.183Z,3.05
2023-03-26T22:02:13.977Z,3.10
2023-03-26T22:05:09.136Z,3.10
2023-03-26T22:08:02.084Z,2.78
2023-03-26T22:10:50.020Z,3.13
2023-03-26T22:13:38.989Z,3.05
2023-03-26T22:16:26.763Z,2.42
2023-03-26T22:19:14.762Z,2.33
2023-03-26T22:22:03.089Z,2.15
2023-03-26T22:24:52.371Z,2.17
2023-03-26T22:27:44.265Z,5.18
2023-03-26T22:30:34.262Z,1.98
2023-03-26T22:33:21.871Z,1.85
2023-03-26T22:36:22.456Z,1.63
2023-03-26T22:39:12.164Z,1.60
2023-03-26T22:42:02.137Z,1.83
2023-03-26T22:44:49.931Z,3.38
2023-03-26T22:47:38.788Z,3.17
2023-03-26T22:50:27.300Z,1.15
2023-03-26T22:53:15.072Z,1.48
2023-03-26T22:56:02.965Z,1.50
2023-03-26T22:58:52.212Z,1.58
2023-03-26T23:01:40.299Z,2.58
2023-03-26T23:04:31.219Z,1.90
2023-03-26T23:07:19.711Z,2.17
2023-03-26T23:10:09.166Z,2.13
2023-03-26T23:12:57.044Z,2.45
2023-03-26T23:15:47.259Z,2.45
2023-03-26T23:18:36.629Z,2.65
2023-03-26T23:21:24.698Z,1.88
2023-03-26T23:24:12.676Z,2.05
2023-03-26T23:27:00.741Z,1.58
2023-03-26T23:29:48.561Z,2.05
2023-03-26T23:32:38.313Z,1.58
2023-03-26T23:35:26.475Z,2.88
2023-03-26T23:38:14.098Z,1.80
2023-03-26T23:41:02.037Z,1.20
2023-03-26T23:43:55.472Z,1.25
2023-03-26T23:46:44.179Z,2.25
2023-03-26T23:49:33.173Z,1.60
2023-03-26T23:52:21.084Z,1.40
2023-03-26T23:55:09.935Z,3.70
2023-03-26T23:57:57.843Z,1.20
